Time;durP1;ratioP1;P1;durP2;ratioP2;P2;SDS_P1;SDS_P2;PMS_P1;PMS_P2;Temp;Humidity;BMP_temperature;BMP_pressure;BME280_temperature;BME280_humidity;BME280_pressure;Samples;Min_cycle;Max_cycle;Signal;HPM_P1;HPM_P2
2022/09/04 00:00:10;;;;;;;0.50;0.50;;;;;;;;;;1978755;71;26288;-41
2022/09/04 00:02:54;;;;;;;0.50;0.50;;;;;;;;;;1971341;71;26282;-44
2022/09/04 00:05:26;;;;;;;0.53;0.53;;;;;;;;;;1982579;71;26328;-41
2022/09/04 00:08:01;;;;;;;0.35;0.35;;;;;;;;;;1992368;71;26702;-42
2022/09/04 00:10:29;;;;;;;0.60;0.60;;;;;;;;;;1967464;71;26384;-41
2022/09/04 00:12:58;;;;;;;0.60;0.60;;;;;;;;;;1967522;71;26267;-43
2022/09/04 00:15:27;;;;;;;0.42;0.42;;;;;;;;;;1960402;71;26249;-41
2022/09/04 00:18:13;;;;;;;0.50;0.50;;;;;;;;;;1989734;70;26316;-44
2022/09/04 00:20:42;;;;;;;0.55;0.55;;;;;;;;;;2004307;70;26238;-42
2022/09/04 00:23:11;;;;;;;0.47;0.47;;;;;;;;;;1985540;71;26309;-41
2022/09/04 00:25:39;;;;;;;0.50;0.50;;;;;;;;;;1987407;70;26632;-41
2022/09/04 00:28:08;;;;;;;0.42;0.42;;;;;;;;;;1970504;71;26785;-41
2022/09/04 00:30:37;;;;;;;0.47;0.47;;;;;;;;;;1975760;71;26786;-41
2022/09/04 00:33:07;;;;;;;0.40;0.40;;;;;;;;;;1968546;71;27527;-42
2022/09/04 00:35:39;;;;;;;0.40;0.40;;;;;;;;;;1974679;71;26299;-41
2022/09/04 00:38:14;;;;;;;0.50;0.50;;;;;;;;;;1968199;71;26233;-41
2022/09/04 00:41:00;;;;;;;0.40;0.40;;;;;;;;;;1970398;71;26523;-41
2022/09/04 00:43:32;;;;;;;0.40;0.40;;;;;;;;;;1988563;70;26351;-41
2022/09/04 00:46:17;;;;;;;0.40;0.40;;;;;;;;;;1974297;71;26296;-41
2022/09/04 00:49:04;;;;;;;0.50;0.50;;;;;;;;;;1964669;71;26677;-42
2022/09/04 00:51:36;;;;;;;0.40;0.40;;;;;;;;;;1980534;71;26794;-42
2022/09/04 00:54:14;;;;;;;0.40;0.40;;;;;;;;;;1999540;70;26229;-41
2022/09/04 00:56:52;;;;;;;0.30;0.30;;;;;;;;;;1973895;71;26241;-41
2022/09/04 00:59:33;;;;;;;0.50;0.50;;;;;;;;;;1985023;71;26769;-42
2022/09/04 01:02:02;;;;;;;0.40;0.40;;;;;;;;;;1999314;70;26310;-44
2022/09/04 01:04:33;;;;;;;0.30;0.30;;;;;;;;;;1932428;71;26238;-42
2022/09/04 01:07:05;;;;;;;0.50;0.50;;;;;;;;;;1995082;71;26225;-42
2022/09/04 01:09:46;;;;;;;0.40;0.40;;;;;;;;;;1968492;71;26779;-42
2022/09/04 01:12:16;;;;;;;0.50;0.50;;;;;;;;;;1973981;71;26735;-40
2022/09/04 01:14:54;;;;;;;0.50;0.50;;;;;;;;;;2001376;71;26228;-40
2022/09/04 01:17:26;;;;;;;0.40;0.40;;;;;;;;;;1966822;70;26770;-41
2022/09/04 01:19:55;;;;;;;0.50;0.50;;;;;;;;;;2001971;70;26251;-41
2022/09/04 01:22:27;;;;;;;0.50;0.50;;;;;;;;;;1997525;71;26252;-41
2022/09/04 01:24:55;;;;;;;0.40;0.40;;;;;;;;;;1961728;71;26309;-41
2022/09/04 01:27:30;;;;;;;0.45;0.45;;;;;;;;;;1964285;71;26754;-39
2022/09/04 01:29:59;;;;;;;0.40;0.40;;;;;;;;;;1975308;71;26348;-42
2022/09/04 01:32:45;;;;;;;0.50;0.50;;;;;;;;;;1984985;70;26381;-40
2022/09/04 01:35:23;;;;;;;0.47;0.47;;;;;;;;;;1981563;71;26277;-42
2022/09/04 01:38:00;;;;;;;0.40;0.40;;;;;;;;;;1986990;70;26297;-41
2022/09/04 01:40:29;;;;;;;0.40;0.40;;;;;;;;;;1975967;71;26260;-41
2022/09/04 01:43:01;;;;;;;0.55;0.55;;;;;;;;;;1978473;70;26204;-42
2022/09/04 01:45:38;;;;;;;0.30;0.30;;;;;;;;;;1983648;70;26240;-40
2022/09/04 01:48:09;;;;;;;0.40;0.40;;;;;;;;;;2001085;71;26769;-43
2022/09/04 01:50:36;;;;;;;0.30;0.30;;;;;;;;;;1978314;70;26294;-41
2022/09/04 01:53:08;;;;;;;0.50;0.50;;;;;;;;;;1976317;71;26234;-41
2022/09/04 01:55:43;;;;;;;0.30;0.30;;;;;;;;;;1979780;71;26300;-41
2022/09/04 01:58:24;;;;;;;0.57;0.57;;;;;;;;;;1982860;71;26357;-41
2022/09/04 02:00:53;;;;;;;0.40;0.40;;;;;;;;;;1975710;70;26823;-42
2022/09/04 02:03:22;;;;;;;0.50;0.50;;;;;;;;;;1981041;70;26248;-41
2022/09/04 02:06:06;;;;;;;0.40;0.40;;;;;;;;;;1969032;71;26282;-42
2022/09/04 02:08:40;;;;;;;0.40;0.40;;;;;;;;;;1967754;71;26291;-44
2022/09/04 02:11:12;;;;;;;0.40;0.40;;;;;;;;;;1959413;71;26765;-41
2022/09/04 02:14:03;;;;;;;0.50;0.50;;;;;;;;;;1968457;71;26812;-45
2022/09/04 02:16:37;;;;;;;0.40;0.40;;;;;;;;;;1972706;71;26288;-40
2022/09/04 02:19:06;;;;;;;0.40;0.40;;;;;;;;;;1968890;70;26183;-40
2022/09/04 02:21:35;;;;;;;0.40;0.40;;;;;;;;;;1989538;70;26234;-42
2022/09/04 02:24:06;;;;;;;0.40;0.40;;;;;;;;;;1978096;71;26237;-41
2022/09/04 02:26:35;;;;;;;0.50;0.50;;;;;;;;;;1998750;71;26233;-41
2022/09/04 02:29:10;;;;;;;0.45;0.45;;;;;;;;;;1968824;71;26303;-42
2022/09/04 02:31:48;;;;;;;0.50;0.50;;;;;;;;;;1996053;70;26346;-42
2022/09/04 02:34:19;;;;;;;0.30;0.30;;;;;;;;;;1954489;71;26263;-41
2022/09/04 02:36:51;;;;;;;0.40;0.40;;;;;;;;;;1965339;71;26259;-41
2022/09/04 02:39:26;;;;;;;0.40;0.40;;;;;;;;;;1969439;71;27490;-41
2022/09/04 02:41:55;;;;;;;0.40;0.40;;;;;;;;;;1974012;71;26276;-41
2022/09/04 02:44:26;;;;;;;0.45;0.45;;;;;;;;;;1967178;70;26276;-43
2022/09/04 02:46:58;;;;;;;0.40;0.40;;;;;;;;;;1971570;70;26260;-42
2022/09/04 02:49:29;;;;;;;0.40;0.40;;;;;;;;;;1963537;71;26193;-42
2022/09/04 02:52:04;;;;;;;0.40;0.40;;;;;;;;;;1973251;70;26303;-42
2022/09/04 02:54:51;;;;;;;0.40;0.40;;;;;;;;;;2012796;71;26178;-41
2022/09/04 02:57:26;;;;;;;0.57;0.57;;;;;;;;;;1976655;70;26260;-43
2022/09/04 02:59:58;;;;;;;0.40;0.40;;;;;;;;;;1981694;70;26351;-41
2022/09/04 03:02:27;;;;;;;0.40;0.40;;;;;;;;;;2003008;70;26296;-41
2022/09/04 03:05:12;;;;;;;0.50;0.50;;;;;;;;;;1975140;71;26818;-41
2022/09/04 03:07:41;;;;;;;0.33;0.33;;;;;;;;;;1992503;70;26247;-40
2022/09/04 03:10:16;;;;;;;0.50;0.50;;;;;;;;;;1995306;71;26285;-40
2022/09/04 03:12:45;;;;;;;0.30;0.30;;;;;;;;;;2008952;70;26274;-42
2022/09/04 03:15:23;;;;;;;0.30;0.30;;;;;;;;;;1983164;71;25675;-41
2022/09/04 03:17:57;;;;;;;0.50;0.50;;;;;;;;;;1971855;70;26249;-42
2022/09/04 03:20:26;;;;;;;0.40;0.40;;;;;;;;;;1986438;71;26671;-41
2022/09/04 03:22:58;;;;;;;0.45;0.45;;;;;;;;;;1974448;71;26336;-41
2022/09/04 03:25:33;;;;;;;0.35;0.35;;;;;;;;;;1980341;70;26722;-41
2022/09/04 03:28:00;;;;;;;0.40;0.40;;;;;;;;;;1974998;71;26224;-41
2022/09/04 03:30:29;;;;;;;0.40;0.40;;;;;;;;;;1978101;71;26217;-40
2022/09/04 03:32:58;;;;;;;0.40;0.40;;;;;;;;;;1978967;71;26248;-40
2022/09/04 03:35:27;;;;;;;0.40;0.40;;;;;;;;;;1970295;71;26836;-40
2022/09/04 03:37:59;;;;;;;0.53;0.53;;;;;;;;;;1970606;71;26264;-41
2022/09/04 03:40:41;;;;;;;0.35;0.35;;;;;;;;;;1997597;70;26257;-40
2022/09/04 03:43:16;;;;;;;0.50;0.50;;;;;;;;;;1971123;71;26312;-41
2022/09/04 03:45:48;;;;;;;0.40;0.40;;;;;;;;;;1972110;71;26387;-40
2022/09/04 03:48:23;;;;;;;0.45;0.45;;;;;;;;;;1974733;71;26315;-40
2022/09/04 03:50:52;;;;;;;0.50;0.50;;;;;;;;;;1986389;71;27409;-41
2022/09/04 03:53:36;;;;;;;0.30;0.30;;;;;;;;;;1980014;71;27346;-41
2022/09/04 03:56:13;;;;;;;0.30;0.30;;;;;;;;;;1995941;70;26355;-40
2022/09/04 03:58:45;;;;;;;0.40;0.40;;;;;;;;;;1966024;71;26734;-39
2022/09/04 04:01:16;;;;;;;0.40;0.40;;;;;;;;;;1976305;70;26876;-40
2022/09/04 04:03:57;;;;;;;0.50;0.50;;;;;;;;;;1981882;71;26324;-41
2022/09/04 04:06:42;;;;;;;0.35;0.35;;;;;;;;;;1979588;71;26321;-40
2022/09/04 04:09:18;;;;;;;0.50;0.50;;;;;;;;;;1970715;71;26555;-41
2022/09/04 04:11:47;;;;;;;0.50;0.50;;;;;;;;;;1979795;70;26265;-43
2022/09/04 04:14:15;;;;;;;0.37;0.37;;;;;;;;;;1992548;71;26323;-41
2022/09/04 04:17:01;;;;;;;0.37;0.37;;;;;;;;;;1997326;71;26278;-41
2022/09/04 04:19:46;;;;;;;0.40;0.40;;;;;;;;;;1983040;71;26232;-42
2022/09/04 04:22:32;;;;;;;0.30;0.30;;;;;;;;;;1969920;71;26413;-41
2022/09/04 04:25:00;;;;;;;0.50;0.50;;;;;;;;;;1995013;71;26170;-42
2022/09/04 04:27:34;;;;;;;0.50;0.50;;;;;;;;;;1966345;71;26284;-41
2022/09/04 04:30:09;;;;;;;0.35;0.35;;;;;;;;;;1985835;70;26294;-41
2022/09/04 04:32:54;;;;;;;0.50;0.50;;;;;;;;;;1972485;71;26368;-41
2022/09/04 04:35:26;;;;;;;0.30;0.30;;;;;;;;;;1958572;71;26262;-40
2022/09/04 04:38:00;;;;;;;0.40;0.40;;;;;;;;;;1987425;70;26208;-44
2022/09/04 04:40:41;;;;;;;0.50;0.50;;;;;;;;;;1977257;71;26302;-43
2022/09/04 04:43:20;;;;;;;0.37;0.37;;;;;;;;;;1944520;71;26684;-41
2022/09/04 04:45:52;;;;;;;0.45;0.45;;;;;;;;;;1973488;71;26179;-41
2022/09/04 04:48:30;;;;;;;0.55;0.55;;;;;;;;;;2005915;70;26356;-41
2022/09/04 04:50:59;;;;;;;0.47;0.47;;;;;;;;;;1993700;71;26174;-41
2022/09/04 04:53:40;;;;;;;0.50;0.50;;;;;;;;;;1971160;71;26253;-40
2022/09/04 04:56:25;;;;;;;0.40;0.40;;;;;;;;;;1976590;71;26249;-42
2022/09/04 04:59:19;;;;;;;0.35;0.35;;;;;;;;;;1971053;70;26229;-40
2022/09/04 05:01:42;;;;;;;0.40;0.40;;;;;;;;;;1975631;71;26823;-40
2022/09/04 05:04:22;;;;;;;0.40;0.40;;;;;;;;;;1971280;71;26269;-41
2022/09/04 05:06:58;;;;;;;0.57;0.57;;;;;;;;;;1977201;71;26279;-42
2022/09/04 05:09:30;;;;;;;0.30;0.30;;;;;;;;;;1993640;71;26809;-40
2022/09/04 05:12:17;;;;;;;0.40;0.40;;;;;;;;;;1968647;72;26237;-42
2022/09/04 05:14:55;;;;;;;0.30;0.30;;;;;;;;;;1985827;71;26223;-40
2022/09/04 05:17:24;;;;;;;0.53;0.53;;;;;;;;;;1970024;70;26234;-41
2022/09/04 05:19:52;;;;;;;0.40;0.40;;;;;;;;;;1988367;71;26642;-42
2022/09/04 05:22:24;;;;;;;0.40;0.40;;;;;;;;;;1979028;70;26620;-42
2022/09/04 05:24:53;;;;;;;0.33;0.33;;;;;;;;;;1977096;71;26267;-40
2022/09/04 05:27:25;;;;;;;0.40;0.40;;;;;;;;;;1981984;71;26364;-40
2022/09/04 05:29:53;;;;;;;0.35;0.35;;;;;;;;;;1971909;71;26284;-41
2022/09/04 05:32:35;;;;;;;0.40;0.40;;;;;;;;;;1984558;70;26284;-42
2022/09/04 05:35:20;;;;;;;0.40;0.40;;;;;;;;;;1982548;70;26271;-41
2022/09/04 05:37:52;;;;;;;0.40;0.40;;;;;;;;;;2004739;71;26231;-41
2022/09/04 05:40:24;;;;;;;0.40;0.40;;;;;;;;;;1987172;71;26264;-41
2022/09/04 05:43:09;;;;;;;0.33;0.33;;;;;;;;;;1980067;71;26249;-41
2022/09/04 05:45:38;;;;;;;0.30;0.30;;;;;;;;;;1973490;71;26858;-40
2022/09/04 05:48:07;;;;;;;0.40;0.40;;;;;;;;;;1968113;71;26667;-41
2022/09/04 05:50:36;;;;;;;0.33;0.33;;;;;;;;;;1976356;70;26727;-41
2022/09/04 05:53:05;;;;;;;0.42;0.42;;;;;;;;;;1972003;71;26303;-41
2022/09/04 05:55:52;;;;;;;0.40;0.40;;;;;;;;;;1965864;71;26240;-41
2022/09/04 05:58:29;;;;;;;0.28;0.28;;;;;;;;;;1978485;70;26306;-42
2022/09/04 06:00:59;;;;;;;0.35;0.35;;;;;;;;;;1979501;71;26271;-44
2022/09/04 06:03:28;;;;;;;0.40;0.40;;;;;;;;;;1962915;71;27454;-41
2022/09/04 06:06:09;;;;;;;0.40;0.40;;;;;;;;;;1992483;70;27472;-42
2022/09/04 06:08:55;;;;;;;0.33;0.33;;;;;;;;;;1954317;71;26241;-41
2022/09/04 06:11:29;;;;;;;0.30;0.30;;;;;;;;;;1974057;70;26715;-41
2022/09/04 06:13:58;;;;;;;0.30;0.30;;;;;;;;;;1962431;71;26315;-42
2022/09/04 06:16:44;;;;;;;0.30;0.30;;;;;;;;;;1966596;70;26266;-41
2022/09/04 06:19:16;;;;;;;0.30;0.30;;;;;;;;;;1987888;70;26282;-43
2022/09/04 06:22:00;;;;;;;0.40;0.40;;;;;;;;;;1970211;71;26252;-42
2022/09/04 06:24:44;;;;;;;0.28;0.28;;;;;;;;;;1980187;71;26388;-41
2022/09/04 06:27:15;;;;;;;0.30;0.30;;;;;;;;;;1963540;71;26852;-41
2022/09/04 06:29:59;;;;;;;0.33;0.33;;;;;;;;;;1971525;71;26292;-42
2022/09/04 06:32:40;;;;;;;0.30;0.30;;;;;;;;;;1968132;71;27430;-41
2022/09/04 06:35:13;;;;;;;0.30;0.30;;;;;;;;;;1979487;71;26293;-41
2022/09/04 06:37:58;;;;;;;0.30;0.30;;;;;;;;;;2015989;70;26303;-42
2022/09/04 06:40:30;;;;;;;0.35;0.35;;;;;;;;;;1987105;71;26214;-43
2022/09/04 06:43:16;;;;;;;0.20;0.20;;;;;;;;;;1986742;71;26336;-43
2022/09/04 06:45:44;;;;;;;0.30;0.30;;;;;;;;;;1980948;71;26263;-43
2022/09/04 06:48:19;;;;;;;0.40;0.40;;;;;;;;;;1964531;71;26613;-41
2022/09/04 06:50:55;;;;;;;0.30;0.30;;;;;;;;;;1970701;70;26194;-43
2022/09/04 06:53:42;;;;;;;0.20;0.20;;;;;;;;;;1977847;71;26251;-42
2022/09/04 06:56:14;;;;;;;0.23;0.23;;;;;;;;;;1995150;71;26337;-41
2022/09/04 06:58:59;;;;;;;0.23;0.23;;;;;;;;;;1987140;70;26322;-42
2022/09/04 07:01:45;;;;;;;0.20;0.20;;;;;;;;;;1981418;71;26189;-41
2022/09/04 07:04:26;;;;;;;0.30;0.30;;;;;;;;;;1973354;70;26292;-39
2022/09/04 07:07:04;;;;;;;0.33;0.33;;;;;;;;;;1961431;71;26189;-41
2022/09/04 07:09:36;;;;;;;0.20;0.20;;;;;;;;;;2003073;71;26226;-42
2022/09/04 07:12:04;;;;;;;0.20;0.20;;;;;;;;;;1971216;71;26730;-43
2022/09/04 07:14:34;;;;;;;0.20;0.20;;;;;;;;;;1979275;71;26378;-41
2022/09/04 07:17:08;;;;;;;0.20;0.20;;;;;;;;;;1925139;70;26709;-41
2022/09/04 07:19:40;;;;;;;0.28;0.28;;;;;;;;;;1955836;71;26236;-41
2022/09/04 07:22:24;;;;;;;0.30;0.30;;;;;;;;;;1988876;70;26325;-41
2022/09/04 07:25:01;;;;;;;0.20;0.20;;;;;;;;;;1975043;71;26246;-40
2022/09/04 07:27:42;;;;;;;0.20;0.20;;;;;;;;;;2007712;70;26222;-42
2022/09/04 07:30:11;;;;;;;0.25;0.25;;;;;;;;;;1969259;70;26823;-41
2022/09/04 07:32:52;;;;;;;0.20;0.20;;;;;;;;;;1986762;70;26292;-41
2022/09/04 07:35:21;;;;;;;0.25;0.25;;;;;;;;;;1980812;70;26343;-43
2022/09/04 07:38:02;;;;;;;0.30;0.30;;;;;;;;;;1977206;71;26320;-41
2022/09/04 07:40:34;;;;;;;0.20;0.20;;;;;;;;;;1980443;71;26365;-41
2022/09/04 07:43:21;;;;;;;0.13;0.13;;;;;;;;;;1965144;71;26317;-41
2022/09/04 07:45:53;;;;;;;0.30;0.30;;;;;;;;;;1964537;70;26267;-40
2022/09/04 07:48:27;;;;;;;0.20;0.20;;;;;;;;;;1973113;71;26289;-41
2022/09/04 07:51:03;;;;;;;0.20;0.20;;;;;;;;;;1969436;71;26238;-40
2022/09/04 07:53:28;;;;;;;0.20;0.20;;;;;;;;;;1970717;70;26269;-40
2022/09/04 07:56:00;;;;;;;0.30;0.30;;;;;;;;;;1956812;71;26178;-42
2022/09/04 07:58:38;;;;;;;0.15;0.15;;;;;;;;;;1978148;70;26255;-41
2022/09/04 08:01:25;;;;;;;0.20;0.20;;;;;;;;;;1978513;70;26250;-40
2022/09/04 08:04:10;;;;;;;0.20;0.20;;;;;;;;;;2006376;71;27261;-40
2022/09/04 08:06:48;;;;;;;0.28;0.28;;;;;;;;;;1976355;71;26277;-42
2022/09/04 08:09:17;;;;;;;0.10;0.10;;;;;;;;;;1973100;70;26853;-41
2022/09/04 08:11:47;;;;;;;0.30;0.30;;;;;;;;;;1967715;71;26734;-40
2022/09/04 08:14:22;;;;;;;0.20;0.20;;;;;;;;;;1982906;70;26268;-42
2022/09/04 08:16:59;;;;;;;0.10;0.10;;;;;;;;;;1956838;71;26253;-40
2022/09/04 08:19:45;;;;;;;0.10;0.10;;;;;;;;;;1970423;71;26373;-41
2022/09/04 08:22:14;;;;;;;0.20;0.20;;;;;;;;;;1998428;70;26249;-42
2022/09/04 08:24:46;;;;;;;0.20;0.20;;;;;;;;;;1971457;71;26279;-41
2022/09/04 08:27:32;;;;;;;0.20;0.20;;;;;;;;;;1964631;71;26793;-43
2022/09/04 08:30:07;;;;;;;0.25;0.25;;;;;;;;;;1901087;74;26303;-41
2022/09/04 08:32:39;;;;;;;0.10;0.10;;;;;;;;;;1939179;71;26714;-42
2022/09/04 08:35:13;;;;;;;0.10;0.10;;;;;;;;;;1973606;70;26834;-42
2022/09/04 08:37:48;;;;;;;0.20;0.20;;;;;;;;;;1990785;71;26297;-41
2022/09/04 08:40:32;;;;;;;0.20;0.20;;;;;;;;;;1980182;71;26291;-41
2022/09/04 08:43:02;;;;;;;0.15;0.15;;;;;;;;;;1973841;71;26299;-42
2022/09/04 08:45:48;;;;;;;0.10;0.10;;;;;;;;;;1985883;70;26240;-41
2022/09/04 08:48:24;;;;;;;0.10;0.10;;;;;;;;;;1970937;71;26350;-40
2022/09/04 08:51:05;;;;;;;0.20;0.20;;;;;;;;;;1967430;71;26225;-41
2022/09/04 08:53:51;;;;;;;0.05;0.05;;;;;;;;;;1971334;71;26276;-41
2022/09/04 08:56:20;;;;;;;0.10;0.10;;;;;;;;;;1960107;71;26264;-40
2022/09/04 08:59:01;;;;;;;0.23;0.23;;;;;;;;;;1996161;71;26252;-41
2022/09/04 09:01:33;;;;;;;0.10;0.10;;;;;;;;;;1980244;71;26224;-41
2022/09/04 09:04:20;;;;;;;0.30;0.30;;;;;;;;;;1974594;71;26841;-41
2022/09/04 09:07:04;;;;;;;0.13;0.13;;;;;;;;;;1973491;71;26305;-42
2022/09/04 09:09:49;;;;;;;0.20;0.20;;;;;;;;;;1972136;71;26295;-40
2022/09/04 09:12:27;;;;;;;0.20;0.20;;;;;;;;;;1984887;70;26300;-41
2022/09/04 09:14:56;;;;;;;0.10;0.10;;;;;;;;;;1972796;71;26826;-43
2022/09/04 09:17:26;;;;;;;0.10;0.10;;;;;;;;;;1992565;70;27185;-40
2022/09/04 09:20:01;;;;;;;0.20;0.20;;;;;;;;;;2004111;70;26262;-42
2022/09/04 09:22:46;;;;;;;0.10;0.10;;;;;;;;;;1975705;70;26712;-41
2022/09/04 09:25:19;;;;;;;0.10;0.10;;;;;;;;;;1970666;71;26315;-42
2022/09/04 09:28:05;;;;;;;0.17;0.17;;;;;;;;;;1977574;70;26355;-40
2022/09/04 09:30:36;;;;;;;0.10;0.10;;;;;;;;;;1972913;71;26210;-40
2022/09/04 09:33:05;;;;;;;0.17;0.17;;;;;;;;;;1981677;71;26264;-41
2022/09/04 09:35:53;;;;;;;0.10;0.10;;;;;;;;;;1983990;69;26309;-40
2022/09/04 09:38:34;;;;;;;0.13;0.13;;;;;;;;;;1975441;71;26689;-42
2022/09/04 09:41:12;;;;;;;0.10;0.10;;;;;;;;;;1982831;71;26221;-41
2022/09/04 09:43:41;;;;;;;0.20;0.20;;;;;;;;;;2004145;70;26307;-40
2022/09/04 09:46:25;;;;;;;0.20;0.20;;;;;;;;;;1975120;71;26255;-42
2022/09/04 09:49:06;;;;;;;0.20;0.20;;;;;;;;;;1982594;70;26171;-41
2022/09/04 09:51:51;;;;;;;0.10;0.10;;;;;;;;;;1975129;70;26286;-41
2022/09/04 09:54:23;;;;;;;0.03;0.03;;;;;;;;;;1976527;70;26264;-41
2022/09/04 09:57:10;;;;;;;0.10;0.10;;;;;;;;;;1989222;71;26231;-43
2022/09/04 09:59:51;;;;;;;0.10;0.10;;;;;;;;;;1972066;71;26296;-42
2022/09/04 10:02:25;;;;;;;0.10;0.10;;;;;;;;;;1966350;71;26699;-41
2022/09/04 10:05:06;;;;;;;0.20;0.20;;;;;;;;;;1990982;70;27464;-42
2022/09/04 10:07:51;;;;;;;0.20;0.20;;;;;;;;;;1965615;71;26252;-41
2022/09/04 10:10:20;;;;;;;0.10;0.10;;;;;;;;;;1981474;71;26393;-41
2022/09/04 10:12:52;;;;;;;0.20;0.20;;;;;;;;;;1993331;70;26268;-41
2022/09/04 10:15:40;;;;;;;0.10;0.10;;;;;;;;;;1992539;70;26363;-41
2022/09/04 10:18:09;;;;;;;0.20;0.20;;;;;;;;;;1988339;71;26309;-42
2022/09/04 10:20:41;;;;;;;0.10;0.10;;;;;;;;;;1974130;71;26249;-41
2022/09/04 10:23:22;;;;;;;0.00;0.00;;;;;;;;;;1957545;71;26252;-41
2022/09/04 10:25:53;;;;;;;0.10;0.10;;;;;;;;;;1979624;70;26316;-43
2022/09/04 10:28:39;;;;;;;0.10;0.10;;;;;;;;;;1967528;71;26300;-41
2022/09/04 10:31:14;;;;;;;0.10;0.10;;;;;;;;;;1992117;71;26324;-45
2022/09/04 10:33:52;;;;;;;0.10;0.10;;;;;;;;;;1974653;70;26277;-43
2022/09/04 10:36:20;;;;;;;0.10;0.10;;;;;;;;;;1976223;71;26756;-42
2022/09/04 10:41:45;;;;;;;0.10;0.10;;;;;;;;;;1965812;71;26783;-41
2022/09/04 10:44:14;;;;;;;0.10;0.10;;;;;;;;;;1998360;71;26318;-42
2022/09/04 10:46:51;;;;;;;0.20;0.20;;;;;;;;;;1971558;70;26257;-41
2022/09/04 10:49:39;;;;;;;0.03;0.03;;;;;;;;;;1973845;71;26325;-43
2022/09/04 10:52:11;;;;;;;0.15;0.15;;;;;;;;;;1971290;71;26213;-39
2022/09/04 10:54:43;;;;;;;0.10;0.10;;;;;;;;;;2004528;70;26345;-40
2022/09/04 10:57:20;;;;;;;0.10;0.10;;;;;;;;;;2008356;70;26303;-41
2022/09/04 10:59:49;;;;;;;0.10;0.10;;;;;;;;;;1980829;71;26259;-43
2022/09/04 11:02:34;;;;;;;0.15;0.15;;;;;;;;;;1969219;70;26326;-41
2022/09/04 11:05:03;;;;;;;0.10;0.10;;;;;;;;;;1972084;71;26264;-42
2022/09/04 11:07:32;;;;;;;0.10;0.10;;;;;;;;;;1965959;71;26264;-40
2022/09/04 11:10:09;;;;;;;0.10;0.10;;;;;;;;;;1968041;70;26841;-41
2022/09/04 11:12:41;;;;;;;0.10;0.10;;;;;;;;;;1979620;71;26209;-42
2022/09/04 11:15:11;;;;;;;0.10;0.10;;;;;;;;;;1966802;71;25729;-42
2022/09/04 11:17:40;;;;;;;0.10;0.10;;;;;;;;;;1989798;70;26245;-40
2022/09/04 11:20:26;;;;;;;0.20;0.20;;;;;;;;;;1975154;71;26243;-41
2022/09/04 11:23:12;;;;;;;0.10;0.10;;;;;;;;;;1971231;71;26214;-41
2022/09/04 11:26:04;;;;;;;0.20;0.20;;;;;;;;;;1974596;71;26554;-41
2022/09/04 11:28:43;;;;;;;0.20;0.20;;;;;;;;;;1964400;71;26300;-41
2022/09/04 11:31:10;;;;;;;0.10;0.10;;;;;;;;;;1974178;71;26298;-41
2022/09/04 11:33:57;;;;;;;0.10;0.10;;;;;;;;;;1985630;71;26310;-41
2022/09/04 11:36:29;;;;;;;0.10;0.10;;;;;;;;;;1979887;71;26290;-41
2022/09/04 11:39:06;;;;;;;0.17;0.17;;;;;;;;;;1979674;69;26256;-42
2022/09/04 11:41:38;;;;;;;0.13;0.13;;;;;;;;;;1970134;71;26264;-41
2022/09/04 11:44:24;;;;;;;0.20;0.20;;;;;;;;;;1968986;71;26316;-41
2022/09/04 11:47:00;;;;;;;0.10;0.10;;;;;;;;;;1988578;71;26250;-42
2022/09/04 11:49:29;;;;;;;0.10;0.10;;;;;;;;;;1979054;70;26240;-44
2022/09/04 11:52:13;;;;;;;0.10;0.10;;;;;;;;;;1982832;70;26318;-43
2022/09/04 11:54:45;;;;;;;0.13;0.13;;;;;;;;;;1975610;71;26281;-41
2022/09/04 11:57:14;;;;;;;0.20;0.20;;;;;;;;;;1992987;70;26739;-41
2022/09/04 11:59:49;;;;;;;0.17;0.17;;;;;;;;;;1989704;71;26841;-41
2022/09/04 12:02:21;;;;;;;0.10;0.10;;;;;;;;;;1984963;71;26261;-41
2022/09/04 12:04:52;;;;;;;0.10;0.10;;;;;;;;;;1960140;70;26835;-42
2022/09/04 12:07:36;;;;;;;0.10;0.10;;;;;;;;;;1976245;71;26706;-42
2022/09/04 12:10:22;;;;;;;0.10;0.10;;;;;;;;;;1974435;71;26292;-42
2022/09/04 12:12:51;;;;;;;0.20;0.20;;;;;;;;;;1979318;71;26236;-44
2022/09/04 12:15:26;;;;;;;0.13;0.13;;;;;;;;;;1991101;70;26260;-41
2022/09/04 12:17:58;;;;;;;0.10;0.10;;;;;;;;;;2005172;70;26241;-44
2022/09/04 12:20:33;;;;;;;0.20;0.20;;;;;;;;;;1981264;71;26758;-41
2022/09/04 12:23:13;;;;;;;0.13;0.13;;;;;;;;;;1988017;71;26184;-42
2022/09/04 12:25:45;;;;;;;0.10;0.10;;;;;;;;;;1979427;71;26761;-43
2022/09/04 12:28:32;;;;;;;0.20;0.20;;;;;;;;;;1995162;71;26271;-41
2022/09/04 12:31:19;;;;;;;0.30;0.30;;;;;;;;;;1971066;71;26260;-43
2022/09/04 12:34:03;;;;;;;0.10;0.10;;;;;;;;;;1981466;71;26302;-41
2022/09/04 12:36:41;;;;;;;0.10;0.10;;;;;;;;;;1986447;71;26277;-41
2022/09/04 12:39:09;;;;;;;0.23;0.23;;;;;;;;;;1965315;72;26547;-41
2022/09/04 12:41:41;;;;;;;0.15;0.15;;;;;;;;;;1975405;71;26647;-41
2022/09/04 12:44:13;;;;;;;0.20;0.20;;;;;;;;;;1960830;71;26735;-41
2022/09/04 12:46:54;;;;;;;0.10;0.10;;;;;;;;;;1972098;71;26338;-41
2022/09/04 12:49:41;;;;;;;0.20;0.20;;;;;;;;;;1992843;70;26381;-45
2022/09/04 12:52:17;;;;;;;0.20;0.20;;;;;;;;;;1986292;70;26799;-43
2022/09/04 12:54:43;;;;;;;0.10;0.10;;;;;;;;;;1961756;71;26820;-40
2022/09/04 12:57:31;;;;;;;0.20;0.20;;;;;;;;;;1992180;71;26777;-41
2022/09/04 13:00:07;;;;;;;0.10;0.10;;;;;;;;;;1976125;71;26310;-41
2022/09/04 13:02:33;;;;;;;0.20;0.20;;;;;;;;;;1963213;71;26400;-41
2022/09/04 13:05:02;;;;;;;0.30;0.30;;;;;;;;;;1992494;70;26681;-41
2022/09/04 13:07:48;;;;;;;0.20;0.20;;;;;;;;;;1958871;71;26335;-41
2022/09/04 13:10:23;;;;;;;0.40;0.40;;;;;;;;;;1981233;71;26287;-41
2022/09/04 13:13:00;;;;;;;0.20;0.20;;;;;;;;;;1979506;70;26302;-42
2022/09/04 13:15:44;;;;;;;0.20;0.20;;;;;;;;;;1980961;70;26307;-41
2022/09/04 13:18:32;;;;;;;0.30;0.30;;;;;;;;;;1966520;71;26356;-41
2022/09/04 13:21:04;;;;;;;0.20;0.20;;;;;;;;;;1987868;71;26814;-41
2022/09/04 13:23:39;;;;;;;0.13;0.13;;;;;;;;;;1971669;71;26275;-43
2022/09/04 13:26:28;;;;;;;0.20;0.20;;;;;;;;;;1968069;71;26708;-42
2022/09/04 13:28:59;;;;;;;0.20;0.20;;;;;;;;;;1980464;71;26727;-41
2022/09/04 13:31:30;;;;;;;0.30;0.30;;;;;;;;;;2002266;70;26760;-40
2022/09/04 13:34:00;;;;;;;0.17;0.17;;;;;;;;;;1982911;71;26266;-41
2022/09/04 13:36:28;;;;;;;0.20;0.20;;;;;;;;;;1967542;71;27452;-40
2022/09/04 13:38:57;;;;;;;0.10;0.10;;;;;;;;;;1973191;70;26790;-40
2022/09/04 13:41:35;;;;;;;0.15;0.15;;;;;;;;;;1971960;71;26820;-40
2022/09/04 13:44:13;;;;;;;0.30;0.30;;;;;;;;;;1966679;70;26288;-41
2022/09/04 13:46:42;;;;;;;0.33;0.33;;;;;;;;;;1975695;70;26216;-40
2022/09/04 13:49:16;;;;;;;0.30;0.30;;;;;;;;;;1984325;70;26289;-41
2022/09/04 13:51:46;;;;;;;0.30;0.30;;;;;;;;;;1968471;71;26663;-41
2022/09/04 13:54:15;;;;;;;0.20;0.20;;;;;;;;;;1982669;70;26258;-41
2022/09/04 13:56:47;;;;;;;0.10;0.10;;;;;;;;;;1965624;71;26296;-41
2022/09/04 13:59:16;;;;;;;0.20;0.20;;;;;;;;;;1936763;71;26272;-44
2022/09/04 14:01:48;;;;;;;0.35;0.35;;;;;;;;;;1987335;70;26270;-41
2022/09/04 14:04:21;;;;;;;0.20;0.20;;;;;;;;;;1985768;70;26765;-44
2022/09/04 14:06:48;;;;;;;0.30;0.30;;;;;;;;;;1972121;71;26287;-40
2022/09/04 14:09:16;;;;;;;0.20;0.20;;;;;;;;;;1988590;70;26513;-42
2022/09/04 14:11:53;;;;;;;0.20;0.20;;;;;;;;;;1965777;71;26292;-41
2022/09/04 14:14:22;;;;;;;0.20;0.20;;;;;;;;;;1964607;71;26303;-43
2022/09/04 14:16:53;;;;;;;0.20;0.20;;;;;;;;;;1980754;71;26901;-42
2022/09/04 14:19:23;;;;;;;0.20;0.20;;;;;;;;;;1970257;71;26312;-42
2022/09/04 14:21:59;;;;;;;0.20;0.20;;;;;;;;;;1976488;71;26297;-42
2022/09/04 14:24:44;;;;;;;0.17;0.17;;;;;;;;;;1969475;71;26284;-41
2022/09/04 14:27:19;;;;;;;0.25;0.25;;;;;;;;;;1992301;70;26866;-41
2022/09/04 14:29:48;;;;;;;0.30;0.30;;;;;;;;;;1980276;71;26256;-41
2022/09/04 14:32:32;;;;;;;0.17;0.17;;;;;;;;;;2000266;70;26410;-44
2022/09/04 14:35:01;;;;;;;0.30;0.30;;;;;;;;;;1882472;74;26224;-42
2022/09/04 14:37:30;;;;;;;0.20;0.20;;;;;;;;;;1952577;70;27151;-42
2022/09/04 14:40:01;;;;;;;0.30;0.30;;;;;;;;;;1979716;70;26280;-40
2022/09/04 14:42:30;;;;;;;0.30;0.30;;;;;;;;;;1964429;71;26257;-40
2022/09/04 14:45:17;;;;;;;0.20;0.20;;;;;;;;;;1970923;71;26218;-41
2022/09/04 14:47:46;;;;;;;0.30;0.30;;;;;;;;;;1971082;70;27517;-42
2022/09/04 14:50:15;;;;;;;0.33;0.33;;;;;;;;;;1972874;70;26257;-42
2022/09/04 14:52:47;;;;;;;0.20;0.20;;;;;;;;;;1971504;71;27670;-42
2022/09/04 14:55:16;;;;;;;0.20;0.20;;;;;;;;;;1974301;71;26710;-42
2022/09/04 14:57:49;;;;;;;0.20;0.20;;;;;;;;;;1970369;71;26399;-44
2022/09/04 15:00:17;;;;;;;0.25;0.25;;;;;;;;;;1966758;72;26300;-43
2022/09/04 15:03:01;;;;;;;0.20;0.20;;;;;;;;;;1971481;71;26297;-41
2022/09/04 15:05:30;;;;;;;0.20;0.20;;;;;;;;;;1960673;71;26257;-41
2022/09/04 15:07:59;;;;;;;0.30;0.30;;;;;;;;;;1987108;70;26287;-44
2022/09/04 15:10:37;;;;;;;0.28;0.28;;;;;;;;;;1965154;70;26270;-42
2022/09/04 15:13:08;;;;;;;0.35;0.35;;;;;;;;;;1993933;70;26259;-44
2022/09/04 15:15:37;;;;;;;0.23;0.23;;;;;;;;;;1987916;71;26290;-41
2022/09/04 15:18:24;;;;;;;0.20;0.20;;;;;;;;;;1966207;71;26318;-41
2022/09/04 15:20:53;;;;;;;0.13;0.13;;;;;;;;;;1990797;71;26323;-46
2022/09/04 15:23:25;;;;;;;0.30;0.30;;;;;;;;;;1968395;71;27201;-40
2022/09/04 15:25:57;;;;;;;0.30;0.30;;;;;;;;;;1980809;71;26256;-43
2022/09/04 15:28:28;;;;;;;0.20;0.20;;;;;;;;;;1979617;71;26793;-40
2022/09/04 15:31:00;;;;;;;0.20;0.20;;;;;;;;;;1974427;70;26249;-42
2022/09/04 15:33:27;;;;;;;0.37;0.37;;;;;;;;;;1957064;70;26321;-43